Coalton, Kentucky
Current Conditions -  °F | °C
As of 1:51 AM on Thursday 27 Nov 2014 (Local Time) from KHTS Reporting Station
Broken Clouds Broken Clouds  
Wind Chill: 29°   Ceiling: 10000
Heat Index: 33°   Visibility: 9mi
Dew Point: 28°   Wind: 5mph
Humidity: 82%   Direction: 360°N
Pressure: 30.01"   Gusts: NA
Location:  38.2878°N, 82.7547°W
Report Text: KHTS 270651Z 36004KT 9SM BKN100 01/M02 A3001 RMK AO2 SLP166 T00061022
Loading
Personal Weather Stations






























Interactive Weather Map New forecast layout! Learn more

10-Day Weather Forecast

Advertisements
Track Severe Weather on mobile